sensor_id;sensor_type;location;lat;lon;timestamp;P1;durP1;ratioP1;P2;durP2;ratioP2
19193;SDS011;9729;52.296;13.260;2023-04-01T00:01:44;3.30;;;1.97;;
19193;SDS011;9729;52.296;13.260;2023-04-01T00:04:11;5.37;;;1.80;;
19193;SDS011;9729;52.296;13.260;2023-04-01T00:06:37;6.90;;;2.00;;
19193;SDS011;9729;52.296;13.260;2023-04-01T00:09:03;6.97;;;1.90;;
19193;SDS011;9729;52.296;13.260;2023-04-01T00:11:30;5.30;;;1.87;;
19193;SDS011;9729;52.296;13.260;2023-04-01T00:13:56;4.53;;;1.73;;
19193;SDS011;9729;52.296;13.260;2023-04-01T00:16:23;3.17;;;1.47;;
19193;SDS011;9729;52.296;13.260;2023-04-01T00:18:51;4.47;;;1.87;;
19193;SDS011;9729;52.296;13.260;2023-04-01T00:21:17;4.17;;;2.10;;
19193;SDS011;9729;52.296;13.260;2023-04-01T00:23:44;4.30;;;1.50;;
19193;SDS011;9729;52.296;13.260;2023-04-01T00:26:10;7.90;;;1.87;;
19193;SDS011;9729;52.296;13.260;2023-04-01T00:28:39;5.43;;;1.67;;
19193;SDS011;9729;52.296;13.260;2023-04-01T00:31:05;5.63;;;2.37;;
19193;SDS011;9729;52.296;13.260;2023-04-01T00:33:32;4.23;;;1.63;;
19193;SDS011;9729;52.296;13.260;2023-04-01T00:36:06;3.53;;;1.70;;
19193;SDS011;9729;52.296;13.260;2023-04-01T00:38:34;3.23;;;1.93;;
19193;SDS011;9729;52.296;13.260;2023-04-01T00:41:01;4.67;;;1.70;;
19193;SDS011;9729;52.296;13.260;2023-04-01T00:43:27;2.10;;;1.60;;
19193;SDS011;9729;52.296;13.260;2023-04-01T00:45:54;4.63;;;2.10;;
19193;SDS011;9729;52.296;13.260;2023-04-01T00:48:21;4.20;;;2.40;;
19193;SDS011;9729;52.296;13.260;2023-04-01T00:50:50;4.00;;;2.17;;
19193;SDS011;9729;52.296;13.260;2023-04-01T00:53:19;3.27;;;1.77;;
19193;SDS011;9729;52.296;13.260;2023-04-01T00:55:48;5.43;;;1.73;;
19193;SDS011;9729;52.296;13.260;2023-04-01T00:58:18;7.73;;;1.83;;
19193;SDS011;9729;52.296;13.260;2023-04-01T01:00:46;6.27;;;1.90;;
19193;SDS011;9729;52.296;13.260;2023-04-01T01:03:13;3.23;;;1.77;;
19193;SDS011;9729;52.296;13.260;2023-04-01T01:05:45;4.70;;;1.97;;
19193;SDS011;9729;52.296;13.260;2023-04-01T01:08:23;3.30;;;2.10;;
19193;SDS011;9729;52.296;13.260;2023-04-01T01:10:57;3.23;;;2.07;;
19193;SDS011;9729;52.296;13.260;2023-04-01T01:13:24;4.97;;;2.60;;
19193;SDS011;9729;52.296;13.260;2023-04-01T01:15:55;8.70;;;2.57;;
19193;SDS011;9729;52.296;13.260;2023-04-01T01:18:26;4.73;;;2.00;;
19193;SDS011;9729;52.296;13.260;2023-04-01T01:23:55;7.67;;;2.07;;
19193;SDS011;9729;52.296;13.260;2023-04-01T01:29:30;6.33;;;2.43;;
19193;SDS011;9729;52.296;13.260;2023-04-01T01:32:07;7.20;;;2.43;;
19193;SDS011;9729;52.296;13.260;2023-04-01T01:34:43;8.13;;;2.87;;
19193;SDS011;9729;52.296;13.260;2023-04-01T01:37:16;3.37;;;2.13;;
19193;SDS011;9729;52.296;13.260;2023-04-01T01:39:44;5.23;;;2.10;;
19193;SDS011;9729;52.296;13.260;2023-04-01T01:42:15;7.40;;;2.77;;
19193;SDS011;9729;52.296;13.260;2023-04-01T01:44:43;2.87;;;1.83;;
19193;SDS011;9729;52.296;13.260;2023-04-01T01:47:10;3.60;;;1.63;;
19193;SDS011;9729;52.296;13.260;2023-04-01T01:49:37;6.50;;;2.30;;
19193;SDS011;9729;52.296;13.260;2023-04-01T01:52:05;8.53;;;2.23;;
19193;SDS011;9729;52.296;13.260;2023-04-01T01:54:33;5.83;;;1.77;;
19193;SDS011;9729;52.296;13.260;2023-04-01T01:57:01;3.03;;;1.93;;
19193;SDS011;9729;52.296;13.260;2023-04-01T01:59:30;6.80;;;2.20;;
19193;SDS011;9729;52.296;13.260;2023-04-01T02:01:56;6.73;;;2.63;;
19193;SDS011;9729;52.296;13.260;2023-04-01T02:04:24;5.43;;;2.27;;
19193;SDS011;9729;52.296;13.260;2023-04-01T02:06:53;8.67;;;2.70;;
19193;SDS011;9729;52.296;13.260;2023-04-01T02:09:22;5.23;;;2.27;;
19193;SDS011;9729;52.296;13.260;2023-04-01T02:11:50;5.93;;;2.43;;
19193;SDS011;9729;52.296;13.260;2023-04-01T02:14:19;8.40;;;2.43;;
19193;SDS011;9729;52.296;13.260;2023-04-01T02:16:48;3.33;;;1.90;;
19193;SDS011;9729;52.296;13.260;2023-04-01T02:19:18;7.37;;;2.97;;
19193;SDS011;9729;52.296;13.260;2023-04-01T02:21:47;6.20;;;2.47;;
19193;SDS011;9729;52.296;13.260;2023-04-01T02:24:16;7.37;;;2.20;;
19193;SDS011;9729;52.296;13.260;2023-04-01T02:26:43;6.70;;;2.93;;
19193;SDS011;9729;52.296;13.260;2023-04-01T02:29:12;10.87;;;2.60;;
19193;SDS011;9729;52.296;13.260;2023-04-01T02:31:38;8.40;;;2.70;;
19193;SDS011;9729;52.296;13.260;2023-04-01T02:34:05;5.17;;;2.10;;
19193;SDS011;9729;52.296;13.260;2023-04-01T02:36:31;5.80;;;2.53;;
19193;SDS011;9729;52.296;13.260;2023-04-01T02:38:58;6.73;;;2.07;;
19193;SDS011;9729;52.296;13.260;2023-04-01T02:41:27;12.60;;;2.20;;
19193;SDS011;9729;52.296;13.260;2023-04-01T02:43:53;5.93;;;2.80;;
19193;SDS011;9729;52.296;13.260;2023-04-01T02:46:21;10.97;;;2.40;;
19193;SDS011;9729;52.296;13.260;2023-04-01T02:48:47;6.93;;;2.90;;
19193;SDS011;9729;52.296;13.260;2023-04-01T02:51:14;10.43;;;2.40;;
19193;SDS011;9729;52.296;13.260;2023-04-01T02:53:40;6.27;;;2.37;;
19193;SDS011;9729;52.296;13.260;2023-04-01T02:56:06;7.97;;;2.67;;
19193;SDS011;9729;52.296;13.260;2023-04-01T02:58:33;14.10;;;3.27;;
19193;SDS011;9729;52.296;13.260;2023-04-01T03:00:59;16.50;;;3.10;;
19193;SDS011;9729;52.296;13.260;2023-04-01T03:03:27;6.87;;;2.43;;
19193;SDS011;9729;52.296;13.260;2023-04-01T03:05:53;10.67;;;2.50;;
19193;SDS011;9729;52.296;13.260;2023-04-01T03:08:21;8.50;;;2.63;;
19193;SDS011;9729;52.296;13.260;2023-04-01T03:10:47;13.40;;;2.87;;
19193;SDS011;9729;52.296;13.260;2023-04-01T03:13:13;8.60;;;2.90;;
19193;SDS011;9729;52.296;13.260;2023-04-01T03:15:40;10.20;;;2.53;;
19193;SDS011;9729;52.296;13.260;2023-04-01T03:18:06;3.33;;;2.47;;
19193;SDS011;9729;52.296;13.260;2023-04-01T03:20:34;9.80;;;2.57;;
19193;SDS011;9729;52.296;13.260;2023-04-01T03:23:00;6.63;;;3.00;;
19193;SDS011;9729;52.296;13.260;2023-04-01T03:25:26;10.07;;;2.90;;
19193;SDS011;9729;52.296;13.260;2023-04-01T03:27:53;11.80;;;3.43;;
19193;SDS011;9729;52.296;13.260;2023-04-01T03:30:20;7.60;;;2.90;;
19193;SDS011;9729;52.296;13.260;2023-04-01T03:32:46;11.77;;;3.40;;
19193;SDS011;9729;52.296;13.260;2023-04-01T03:35:12;8.50;;;2.83;;
19193;SDS011;9729;52.296;13.260;2023-04-01T03:37:40;7.87;;;2.33;;
19193;SDS011;9729;52.296;13.260;2023-04-01T03:40:07;12.90;;;2.40;;
19193;SDS011;9729;52.296;13.260;2023-04-01T03:42:34;12.30;;;2.80;;
19193;SDS011;9729;52.296;13.260;2023-04-01T03:45:00;7.17;;;2.23;;
19193;SDS011;9729;52.296;13.260;2023-04-01T03:47:27;8.83;;;2.70;;
19193;SDS011;9729;52.296;13.260;2023-04-01T03:49:54;7.00;;;2.30;;
19193;SDS011;9729;52.296;13.260;2023-04-01T03:52:20;10.17;;;3.00;;
19193;SDS011;9729;52.296;13.260;2023-04-01T03:54:48;9.30;;;2.60;;
19193;SDS011;9729;52.296;13.260;2023-04-01T03:57:14;5.10;;;2.60;;
19193;SDS011;9729;52.296;13.260;2023-04-01T03:59:41;7.50;;;2.40;;
19193;SDS011;9729;52.296;13.260;2023-04-01T04:02:07;5.37;;;2.30;;
19193;SDS011;9729;52.296;13.260;2023-04-01T04:04:33;11.70;;;2.63;;
19193;SDS011;9729;52.296;13.260;2023-04-01T04:07:00;10.50;;;2.40;;
19193;SDS011;9729;52.296;13.260;2023-04-01T04:09:26;6.37;;;2.33;;
19193;SDS011;9729;52.296;13.260;2023-04-01T04:11:54;9.23;;;2.93;;
19193;SDS011;9729;52.296;13.260;2023-04-01T04:14:21;6.80;;;2.30;;
19193;SDS011;9729;52.296;13.260;2023-04-01T04:16:48;5.17;;;3.37;;
19193;SDS011;9729;52.296;13.260;2023-04-01T04:19:14;6.07;;;2.53;;
19193;SDS011;9729;52.296;13.260;2023-04-01T04:21:41;8.77;;;3.47;;
19193;SDS011;9729;52.296;13.260;2023-04-01T04:24:08;9.00;;;3.20;;
19193;SDS011;9729;52.296;13.260;2023-04-01T04:26:34;9.23;;;2.60;;
19193;SDS011;9729;52.296;13.260;2023-04-01T04:29:02;9.77;;;2.90;;
19193;SDS011;9729;52.296;13.260;2023-04-01T04:31:29;11.13;;;2.87;;
19193;SDS011;9729;52.296;13.260;2023-04-01T04:33:55;13.80;;;2.87;;
19193;SDS011;9729;52.296;13.260;2023-04-01T04:36:22;7.23;;;2.60;;
19193;SDS011;9729;52.296;13.260;2023-04-01T04:38:48;11.20;;;2.63;;
19193;SDS011;9729;52.296;13.260;2023-04-01T04:41:15;7.70;;;2.90;;
19193;SDS011;9729;52.296;13.260;2023-04-01T04:43:47;6.67;;;2.20;;
19193;SDS011;9729;52.296;13.260;2023-04-01T04:46:16;5.97;;;2.53;;
19193;SDS011;9729;52.296;13.260;2023-04-01T04:48:43;9.60;;;3.17;;
19193;SDS011;9729;52.296;13.260;2023-04-01T04:51:12;7.97;;;2.70;;
19193;SDS011;9729;52.296;13.260;2023-04-01T04:53:39;10.50;;;2.67;;
19193;SDS011;9729;52.296;13.260;2023-04-01T04:56:06;5.37;;;2.70;;
19193;SDS011;9729;52.296;13.260;2023-04-01T04:58:32;3.63;;;2.80;;
19193;SDS011;9729;52.296;13.260;2023-04-01T05:00:58;11.30;;;2.97;;
19193;SDS011;9729;52.296;13.260;2023-04-01T05:03:26;11.00;;;3.77;;
19193;SDS011;9729;52.296;13.260;2023-04-01T05:05:53;11.37;;;4.33;;
19193;SDS011;9729;52.296;13.260;2023-04-01T05:08:19;11.27;;;3.47;;
19193;SDS011;9729;52.296;13.260;2023-04-01T05:10:46;8.77;;;2.70;;
19193;SDS011;9729;52.296;13.260;2023-04-01T05:13:13;5.17;;;2.80;;
19193;SDS011;9729;52.296;13.260;2023-04-01T05:15:39;12.40;;;3.83;;
19193;SDS011;9729;52.296;13.260;2023-04-01T05:18:06;8.87;;;3.73;;
19193;SDS011;9729;52.296;13.260;2023-04-01T05:20:33;6.90;;;3.00;;
19193;SDS011;9729;52.296;13.260;2023-04-01T05:23:00;10.80;;;3.00;;
19193;SDS011;9729;52.296;13.260;2023-04-01T05:25:26;3.73;;;2.27;;
19193;SDS011;9729;52.296;13.260;2023-04-01T05:27:53;8.37;;;3.30;;
19193;SDS011;9729;52.296;13.260;2023-04-01T05:30:22;9.73;;;2.70;;
19193;SDS011;9729;52.296;13.260;2023-04-01T05:32:48;7.90;;;2.57;;
19193;SDS011;9729;52.296;13.260;2023-04-01T05:35:15;7.33;;;2.30;;
19193;SDS011;9729;52.296;13.260;2023-04-01T05:37:42;13.00;;;2.77;;
19193;SDS011;9729;52.296;13.260;2023-04-01T05:40:09;9.40;;;3.00;;
19193;SDS011;9729;52.296;13.260;2023-04-01T05:42:36;3.63;;;2.30;;
19193;SDS011;9729;52.296;13.260;2023-04-01T05:45:03;5.63;;;2.53;;
19193;SDS011;9729;52.296;13.260;2023-04-01T05:47:29;8.53;;;2.47;;
19193;SDS011;9729;52.296;13.260;2023-04-01T05:49:56;4.00;;;2.53;;
19193;SDS011;9729;52.296;13.260;2023-04-01T05:52:22;6.50;;;2.10;;
19193;SDS011;9729;52.296;13.260;2023-04-01T05:54:50;8.77;;;2.37;;
19193;SDS011;9729;52.296;13.260;2023-04-01T05:57:16;11.03;;;2.60;;
19193;SDS011;9729;52.296;13.260;2023-04-01T05:59:42;10.13;;;2.67;;
19193;SDS011;9729;52.296;13.260;2023-04-01T06:05:35;10.60;;;2.10;;
19193;SDS011;9729;52.296;13.260;2023-04-01T06:08:05;8.23;;;2.30;;
19193;SDS011;9729;52.296;13.260;2023-04-01T06:10:39;5.67;;;2.23;;
19193;SDS011;9729;52.296;13.260;2023-04-01T06:13:16;9.90;;;2.30;;
19193;SDS011;9729;52.296;13.260;2023-04-01T06:15:48;10.53;;;2.20;;
19193;SDS011;9729;52.296;13.260;2023-04-01T06:18:35;5.33;;;2.20;;
19193;SDS011;9729;52.296;13.260;2023-04-01T06:21:11;6.63;;;2.10;;
19193;SDS011;9729;52.296;13.260;2023-04-01T06:23:50;9.67;;;2.20;;
19193;SDS011;9729;52.296;13.260;2023-04-01T06:26:26;4.80;;;2.07;;
19193;SDS011;9729;52.296;13.260;2023-04-01T06:29:05;6.33;;;1.90;;
19193;SDS011;9729;52.296;13.260;2023-04-01T06:31:43;4.80;;;2.17;;
19193;SDS011;9729;52.296;13.260;2023-04-01T06:34:20;5.53;;;2.87;;
19193;SDS011;9729;52.296;13.260;2023-04-01T06:36:59;10.97;;;2.03;;
19193;SDS011;9729;52.296;13.260;2023-04-01T06:42:25;4.90;;;1.77;;
19193;SDS011;9729;52.296;13.260;2023-04-01T06:45:16;5.93;;;1.60;;
19193;SDS011;9729;52.296;13.260;2023-04-01T06:47:52;7.67;;;1.97;;
19193;SDS011;9729;52.296;13.260;2023-04-01T06:50:28;10.50;;;3.33;;
19193;SDS011;9729;52.296;13.260;2023-04-01T06:52:58;8.87;;;1.97;;
19193;SDS011;9729;52.296;13.260;2023-04-01T06:55:29;5.53;;;2.43;;
19193;SDS011;9729;52.296;13.260;2023-04-01T06:58:02;7.63;;;1.83;;
19193;SDS011;9729;52.296;13.260;2023-04-01T07:00:31;13.77;;;2.77;;
19193;SDS011;9729;52.296;13.260;2023-04-01T07:03:05;7.77;;;1.70;;
19193;SDS011;9729;52.296;13.260;2023-04-01T07:05:34;7.47;;;2.90;;
19193;SDS011;9729;52.296;13.260;2023-04-01T07:08:01;3.80;;;1.70;;
19193;SDS011;9729;52.296;13.260;2023-04-01T07:10:32;4.03;;;2.03;;
19193;SDS011;9729;52.296;13.260;2023-04-01T07:13:04;3.80;;;1.60;;
19193;SDS011;9729;52.296;13.260;2023-04-01T07:15:33;7.13;;;2.90;;
19193;SDS011;9729;52.296;13.260;2023-04-01T07:18:03;6.97;;;1.93;;
19193;SDS011;9729;52.296;13.260;2023-04-01T07:20:32;10.00;;;1.90;;
19193;SDS011;9729;52.296;13.260;2023-04-01T07:22:59;5.70;;;1.73;;
19193;SDS011;9729;52.296;13.260;2023-04-01T07:25:27;4.67;;;2.63;;
19193;SDS011;9729;52.296;13.260;2023-04-01T07:28:00;4.60;;;2.13;;
19193;SDS011;9729;52.296;13.260;2023-04-01T07:30:30;7.93;;;2.30;;
19193;SDS011;9729;52.296;13.260;2023-04-01T07:33:03;5.30;;;1.53;;
19193;SDS011;9729;52.296;13.260;2023-04-01T07:35:31;6.13;;;2.43;;
19193;SDS011;9729;52.296;13.260;2023-04-01T07:38:09;7.20;;;1.70;;
19193;SDS011;9729;52.296;13.260;2023-04-01T07:40:43;5.27;;;2.43;;
19193;SDS011;9729;52.296;13.260;2023-04-01T07:46:14;9.00;;;1.83;;
19193;SDS011;9729;52.296;13.260;2023-04-01T07:48:50;7.57;;;2.43;;
19193;SDS011;9729;52.296;13.260;2023-04-01T07:51:20;5.97;;;2.00;;
19193;SDS011;9729;52.296;13.260;2023-04-01T07:53:50;8.43;;;2.60;;
19193;SDS011;9729;52.296;13.260;2023-04-01T07:56:23;5.60;;;1.60;;
19193;SDS011;9729;52.296;13.260;2023-04-01T07:58:54;6.67;;;1.63;;
19193;SDS011;9729;52.296;13.260;2023-04-01T08:01:27;6.63;;;1.80;;
19193;SDS011;9729;52.296;13.260;2023-04-01T08:04:03;4.67;;;1.87;;
19193;SDS011;9729;52.296;13.260;2023-04-01T08:06:43;8.17;;;2.63;;
19193;SDS011;9729;52.296;13.260;2023-04-01T08:09:14;4.70;;;1.57;;
19193;SDS011;9729;52.296;13.260;2023-04-01T08:11:48;7.50;;;1.90;;
19193;SDS011;9729;52.296;13.260;2023-04-01T08:14:25;10.07;;;1.87;;
19193;SDS011;9729;52.296;13.260;2023-04-01T08:16:57;6.17;;;2.00;;
19193;SDS011;9729;52.296;13.260;2023-04-01T08:19:30;6.33;;;1.67;;
19193;SDS011;9729;52.296;13.260;2023-04-01T08:22:02;8.27;;;1.77;;
19193;SDS011;9729;52.296;13.260;2023-04-01T08:24:33;8.30;;;1.73;;
19193;SDS011;9729;52.296;13.260;2023-04-01T08:27:03;8.70;;;1.60;;
19193;SDS011;9729;52.296;13.260;2023-04-01T08:29:34;7.93;;;1.90;;
19193;SDS011;9729;52.296;13.260;2023-04-01T08:32:07;8.83;;;2.13;;
19193;SDS011;9729;52.296;13.260;2023-04-01T08:34:36;4.53;;;1.40;;
19193;SDS011;9729;52.296;13.260;2023-04-01T08:37:04;3.93;;;1.37;;
19193;SDS011;9729;52.296;13.260;2023-04-01T08:39:32;4.47;;;1.53;;
19193;SDS011;9729;52.296;13.260;2023-04-01T08:44:58;6.90;;;1.57;;
19193;SDS011;9729;52.296;13.260;2023-04-01T08:47:46;4.00;;;1.30;;
19193;SDS011;9729;52.296;13.260;2023-04-01T08:53:37;3.13;;;2.03;;
19193;SDS011;9729;52.296;13.260;2023-04-01T08:56:14;3.47;;;1.50;;
19193;SDS011;9729;52.296;13.260;2023-04-01T08:59:02;3.73;;;1.30;;
19193;SDS011;9729;52.296;13.260;2023-04-01T09:04:26;4.90;;;1.37;;
19193;SDS011;9729;52.296;13.260;2023-04-01T09:07:05;5.37;;;1.67;;
19193;SDS011;9729;52.296;13.260;2023-04-01T09:09:53;4.60;;;1.80;;
19193;SDS011;9729;52.296;13.260;2023-04-01T09:12:30;7.53;;;2.07;;
19193;SDS011;9729;52.296;13.260;2023-04-01T09:18:19;5.03;;;1.50;;
19193;SDS011;9729;52.296;13.260;2023-04-01T09:21:11;4.77;;;1.50;;
19193;SDS011;9729;52.296;13.260;2023-04-01T09:23:56;4.20;;;1.57;;
19193;SDS011;9729;52.296;13.260;2023-04-01T09:26:37;5.67;;;1.70;;
19193;SDS011;9729;52.296;13.260;2023-04-01T09:29:15;4.80;;;1.30;;
19193;SDS011;9729;52.296;13.260;2023-04-01T09:34:49;8.00;;;1.30;;
19193;SDS011;9729;52.296;13.260;2023-04-01T09:37:20;8.10;;;1.60;;
19193;SDS011;9729;52.296;13.260;2023-04-01T09:39:55;2.97;;;1.10;;
19193;SDS011;9729;52.296;13.260;2023-04-01T09:42:41;10.13;;;2.53;;
19193;SDS011;9729;52.296;13.260;2023-04-01T09:45:14;5.37;;;1.90;;
19193;SDS011;9729;52.296;13.260;2023-04-01T09:47:53;8.17;;;3.43;;
19193;SDS011;9729;52.296;13.260;2023-04-01T09:50:29;4.43;;;1.63;;
19193;SDS011;9729;52.296;13.260;2023-04-01T09:53:04;3.00;;;1.50;;
19193;SDS011;9729;52.296;13.260;2023-04-01T09:58:46;5.00;;;1.30;;
19193;SDS011;9729;52.296;13.260;2023-04-01T10:01:39;2.83;;;1.20;;
19193;SDS011;9729;52.296;13.260;2023-04-01T10:04:20;2.47;;;1.13;;
19193;SDS011;9729;52.296;13.260;2023-04-01T10:10:20;2.53;;;1.03;;
19193;SDS011;9729;52.296;13.260;2023-04-01T10:13:16;4.70;;;1.00;;
19193;SDS011;9729;52.296;13.260;2023-04-01T10:19:07;3.53;;;1.17;;
19193;SDS011;9729;52.296;13.260;2023-04-01T10:21:57;4.07;;;0.90;;
19193;SDS011;9729;52.296;13.260;2023-04-01T10:24:32;6.23;;;1.17;;
19193;SDS011;9729;52.296;13.260;2023-04-01T10:27:30;1.87;;;0.87;;
19193;SDS011;9729;52.296;13.260;2023-04-01T10:30:05;0.73;;;0.70;;
19193;SDS011;9729;52.296;13.260;2023-04-01T10:33:15;6.90;;;1.03;;
19193;SDS011;9729;52.296;13.260;2023-04-01T10:36:06;4.87;;;1.20;;
19193;SDS011;9729;52.296;13.260;2023-04-01T10:38:56;4.53;;;1.30;;
19193;SDS011;9729;52.296;13.260;2023-04-01T10:42:01;2.10;;;0.80;;
19193;SDS011;9729;52.296;13.260;2023-04-01T10:50:48;4.13;;;2.77;;
19193;SDS011;9729;52.296;13.260;2023-04-01T10:53:33;5.07;;;3.07;;
19193;SDS011;9729;52.296;13.260;2023-04-01T10:56:39;3.20;;;2.80;;
19193;SDS011;9729;52.296;13.260;2023-04-01T10:59:11;3.27;;;2.87;;
19193;SDS011;9729;52.296;13.260;2023-04-01T11:01:49;4.27;;;2.80;;
19193;SDS011;9729;52.296;13.260;2023-04-01T11:04:33;3.50;;;2.80;;
19193;SDS011;9729;52.296;13.260;2023-04-01T11:10:31;3.03;;;2.50;;
19193;SDS011;9729;52.296;13.260;2023-04-01T11:13:26;3.57;;;2.93;;
19193;SDS011;9729;52.296;13.260;2023-04-01T11:16:09;3.63;;;2.97;;
19193;SDS011;9729;52.296;13.260;2023-04-01T11:22:31;3.20;;;2.50;;
19193;SDS011;9729;52.296;13.260;2023-04-01T11:25:17;3.80;;;3.37;;
19193;SDS011;9729;52.296;13.260;2023-04-01T11:28:00;5.23;;;4.07;;
19193;SDS011;9729;52.296;13.260;2023-04-01T11:30:40;4.87;;;2.97;;
19193;SDS011;9729;52.296;13.260;2023-04-01T11:33:17;6.70;;;4.13;;
19193;SDS011;9729;52.296;13.260;2023-04-01T11:38:42;4.03;;;3.03;;
19193;SDS011;9729;52.296;13.260;2023-04-01T11:41:23;7.17;;;4.33;;
19193;SDS011;9729;52.296;13.260;2023-04-01T11:43:55;6.07;;;3.70;;
19193;SDS011;9729;52.296;13.260;2023-04-01T11:46:37;5.60;;;3.00;;
19193;SDS011;9729;52.296;13.260;2023-04-01T11:49:09;3.40;;;3.10;;
19193;SDS011;9729;52.296;13.260;2023-04-01T11:51:55;7.23;;;4.40;;
19193;SDS011;9729;52.296;13.260;2023-04-01T11:54:39;10.27;;;5.20;;
19193;SDS011;9729;52.296;13.260;2023-04-01T11:57:21;8.67;;;3.83;;
19193;SDS011;9729;52.296;13.260;2023-04-01T12:00:14;4.70;;;3.40;;
19193;SDS011;9729;52.296;13.260;2023-04-01T12:02:50;5.70;;;3.40;;
19193;SDS011;9729;52.296;13.260;2023-04-01T12:05:33;4.37;;;3.60;;
19193;SDS011;9729;52.296;13.260;2023-04-01T12:08:13;6.17;;;4.10;;
19193;SDS011;9729;52.296;13.260;2023-04-01T12:10:51;3.70;;;3.33;;
19193;SDS011;9729;52.296;13.260;2023-04-01T12:13:25;3.23;;;2.93;;
19193;SDS011;9729;52.296;13.260;2023-04-01T12:16:02;3.67;;;3.20;;
19193;SDS011;9729;52.296;13.260;2023-04-01T12:18:35;6.57;;;4.07;;
19193;SDS011;9729;52.296;13.260;2023-04-01T12:21:07;4.67;;;3.33;;
19193;SDS011;9729;52.296;13.260;2023-04-01T12:23:48;5.17;;;3.97;;
19193;SDS011;9729;52.296;13.260;2023-04-01T12:29:37;6.97;;;4.43;;
19193;SDS011;9729;52.296;13.260;2023-04-01T12:32:15;6.73;;;4.23;;
19193;SDS011;9729;52.296;13.260;2023-04-01T12:34:53;5.93;;;3.73;;
19193;SDS011;9729;52.296;13.260;2023-04-01T12:37:39;3.23;;;2.80;;
19193;SDS011;9729;52.296;13.260;2023-04-01T12:40:20;4.27;;;3.10;;
19193;SDS011;9729;52.296;13.260;2023-04-01T12:43:05;3.37;;;2.77;;
19193;SDS011;9729;52.296;13.260;2023-04-01T12:45:41;4.17;;;3.77;;
19193;SDS011;9729;52.296;13.260;2023-04-01T12:48:21;5.60;;;4.00;;
19193;SDS011;9729;52.296;13.260;2023-04-01T12:50:57;5.47;;;4.93;;
19193;SDS011;9729;52.296;13.260;2023-04-01T12:53:34;5.90;;;4.57;;
19193;SDS011;9729;52.296;13.260;2023-04-01T12:56:08;3.87;;;3.20;;
19193;SDS011;9729;52.296;13.260;2023-04-01T12:58:47;3.67;;;2.93;;
19193;SDS011;9729;52.296;13.260;2023-04-01T13:01:24;6.27;;;3.87;;
19193;SDS011;9729;52.296;13.260;2023-04-01T13:04:01;5.47;;;2.83;;
19193;SDS011;9729;52.296;13.260;2023-04-01T13:06:42;2.70;;;2.43;;
19193;SDS011;9729;52.296;13.260;2023-04-01T13:09:14;3.83;;;3.20;;
19193;SDS011;9729;52.296;13.260;2023-04-01T13:11:50;3.33;;;2.90;;
19193;SDS011;9729;52.296;13.260;2023-04-01T13:14:31;3.93;;;3.40;;
19193;SDS011;9729;52.296;13.260;2023-04-01T13:17:07;3.97;;;3.07;;
19193;SDS011;9729;52.296;13.260;2023-04-01T13:19:38;3.57;;;3.20;;
19193;SDS011;9729;52.296;13.260;2023-04-01T13:22:10;4.83;;;3.40;;
19193;SDS011;9729;52.296;13.260;2023-04-01T13:24:44;3.83;;;3.30;;
19193;SDS011;9729;52.296;13.260;2023-04-01T13:27:14;4.00;;;3.60;;
19193;SDS011;9729;52.296;13.260;2023-04-01T13:29:45;4.60;;;4.20;;
19193;SDS011;9729;52.296;13.260;2023-04-01T13:32:18;4.23;;;3.73;;
19193;SDS011;9729;52.296;13.260;2023-04-01T13:34:56;3.43;;;3.13;;
19193;SDS011;9729;52.296;13.260;2023-04-01T13:37:32;4.10;;;3.53;;
19193;SDS011;9729;52.296;13.260;2023-04-01T13:40:13;4.57;;;3.70;;
19193;SDS011;9729;52.296;13.260;2023-04-01T13:42:49;6.60;;;4.17;;
19193;SDS011;9729;52.296;13.260;2023-04-01T13:45:22;3.80;;;3.33;;
19193;SDS011;9729;52.296;13.260;2023-04-01T13:48:04;4.00;;;3.30;;
19193;SDS011;9729;52.296;13.260;2023-04-01T13:50:56;4.13;;;3.13;;
19193;SDS011;9729;52.296;13.260;2023-04-01T13:56:38;4.43;;;3.53;;
19193;SDS011;9729;52.296;13.260;2023-04-01T13:59:17;4.63;;;3.80;;
19193;SDS011;9729;52.296;13.260;2023-04-01T14:02:06;4.60;;;3.77;;
19193;SDS011;9729;52.296;13.260;2023-04-01T14:04:47;6.00;;;3.53;;
19193;SDS011;9729;52.296;13.260;2023-04-01T14:07:31;5.40;;;4.23;;
19193;SDS011;9729;52.296;13.260;2023-04-01T14:10:06;4.87;;;3.20;;
19193;SDS011;9729;52.296;13.260;2023-04-01T14:12:36;4.70;;;3.97;;
19193;SDS011;9729;52.296;13.260;2023-04-01T14:18:04;4.60;;;3.47;;
19193;SDS011;9729;52.296;13.260;2023-04-01T14:21:07;3.57;;;2.93;;
19193;SDS011;9729;52.296;13.260;2023-04-01T14:23:43;5.13;;;3.20;;
19193;SDS011;9729;52.296;13.260;2023-04-01T14:26:22;4.83;;;3.80;;
19193;SDS011;9729;52.296;13.260;2023-04-01T14:29:02;3.93;;;3.07;;
19193;SDS011;9729;52.296;13.260;2023-04-01T14:31:42;6.40;;;3.80;;
19193;SDS011;9729;52.296;13.260;2023-04-01T14:34:19;6.53;;;3.10;;
19193;SDS011;9729;52.296;13.260;2023-04-01T14:37:00;5.87;;;3.40;;
19193;SDS011;9729;52.296;13.260;2023-04-01T14:42:31;5.57;;;3.67;;
19193;SDS011;9729;52.296;13.260;2023-04-01T14:45:31;4.30;;;3.77;;
19193;SDS011;9729;52.296;13.260;2023-04-01T14:48:07;4.57;;;3.43;;
19193;SDS011;9729;52.296;13.260;2023-04-01T14:50:45;4.80;;;4.30;;
19193;SDS011;9729;52.296;13.260;2023-04-01T14:53:16;7.67;;;5.10;;
19193;SDS011;9729;52.296;13.260;2023-04-01T14:55:52;7.30;;;5.60;;
19193;SDS011;9729;52.296;13.260;2023-04-01T14:58:20;8.27;;;5.73;;
19193;SDS011;9729;52.296;13.260;2023-04-01T15:00:52;8.87;;;6.47;;
19193;SDS011;9729;52.296;13.260;2023-04-01T15:03:26;10.47;;;6.20;;
19193;SDS011;9729;52.296;13.260;2023-04-01T15:06:00;6.83;;;5.67;;
19193;SDS011;9729;52.296;13.260;2023-04-01T15:08:54;10.60;;;6.47;;
19193;SDS011;9729;52.296;13.260;2023-04-01T15:11:25;9.43;;;7.00;;
19193;SDS011;9729;52.296;13.260;2023-04-01T15:14:11;8.80;;;6.33;;
19193;SDS011;9729;52.296;13.260;2023-04-01T15:16:46;8.00;;;6.30;;
19193;SDS011;9729;52.296;13.260;2023-04-01T15:19:20;6.23;;;5.20;;
19193;SDS011;9729;52.296;13.260;2023-04-01T15:21:59;6.43;;;5.27;;
19193;SDS011;9729;52.296;13.260;2023-04-01T15:24:36;8.37;;;6.47;;
19193;SDS011;9729;52.296;13.260;2023-04-01T15:27:15;9.40;;;6.90;;
19193;SDS011;9729;52.296;13.260;2023-04-01T15:30:01;11.73;;;7.77;;
19193;SDS011;9729;52.296;13.260;2023-04-01T15:32:44;9.27;;;8.17;;
19193;SDS011;9729;52.296;13.260;2023-04-01T15:35:19;7.77;;;6.97;;
19193;SDS011;9729;52.296;13.260;2023-04-01T15:37:53;12.03;;;7.43;;
19193;SDS011;9729;52.296;13.260;2023-04-01T15:40:22;12.27;;;7.67;;
19193;SDS011;9729;52.296;13.260;2023-04-01T15:42:54;8.67;;;7.30;;
19193;SDS011;9729;52.296;13.260;2023-04-01T15:45:30;9.60;;;6.50;;
19193;SDS011;9729;52.296;13.260;2023-04-01T15:48:01;6.57;;;4.00;;
19193;SDS011;9729;52.296;13.260;2023-04-01T15:50:43;8.87;;;5.10;;
19193;SDS011;9729;52.296;13.260;2023-04-01T15:53:25;5.73;;;4.37;;
19193;SDS011;9729;52.296;13.260;2023-04-01T15:55:56;7.03;;;5.67;;
19193;SDS011;9729;52.296;13.260;2023-04-01T15:58:29;7.30;;;4.27;;
19193;SDS011;9729;52.296;13.260;2023-04-01T16:01:04;6.77;;;4.83;;
19193;SDS011;9729;52.296;13.260;2023-04-01T16:03:38;7.07;;;4.60;;
19193;SDS011;9729;52.296;13.260;2023-04-01T16:09:03;5.17;;;4.13;;
19193;SDS011;9729;52.296;13.260;2023-04-01T16:11:49;6.70;;;4.77;;
19193;SDS011;9729;52.296;13.260;2023-04-01T16:14:25;5.00;;;4.50;;
19193;SDS011;9729;52.296;13.260;2023-04-01T16:17:00;4.97;;;4.27;;
19193;SDS011;9729;52.296;13.260;2023-04-01T16:19:33;4.93;;;3.73;;
19193;SDS011;9729;52.296;13.260;2023-04-01T16:22:05;6.30;;;4.53;;
19193;SDS011;9729;52.296;13.260;2023-04-01T16:24:35;7.47;;;4.83;;
19193;SDS011;9729;52.296;13.260;2023-04-01T16:27:06;10.07;;;5.87;;
19193;SDS011;9729;52.296;13.260;2023-04-01T16:29:38;8.73;;;6.27;;
19193;SDS011;9729;52.296;13.260;2023-04-01T16:32:14;8.53;;;6.63;;
19193;SDS011;9729;52.296;13.260;2023-04-01T16:34:46;4.83;;;4.20;;